NH44 weather

Dean Kamen Heliport
Bedford, New Hampshire, United States

Public forecast

Using degrees Fahrenheit for public forecast. Weather courtesy of forecast.io.

Closest aviation weather report (METAR) to Dean Kamen Heliport

Closest report is Manchester-Boston Regional Airport, 3.5 nm (6.5 km) ENE. Retrieved 2019/11/17 16:29 UTC (13 minutes ago):

KMHT 171629Z 35006KT 10SM BKN028 BKN150 BKN250 01/M09 A3040 RMK AO2 T00111094

Closest aviation forecast (TAF) to Dean Kamen Heliport

Closest forecast is Manchester-Boston Regional Airport, 3.5 nm (6.5 km) ENE. Retrieved 2019/11/17 12:40 UTC (4 hours ago):

TAF KMHT 171138Z 1712/1812 02005KT P6SM FEW200 FM171600 VRB04KT P6SM SCT035 FM180400 VRB04KT P6SM BKN025